Etusivu
METAR-TAF:

METAR-TAF

Lentoasemat :

Dakar, Senegal

Leveyspiiri: 14-44N, Pituuspiiri: 017-30W, korkeus merenpinnasta: 27 m

Tämänhetkinen sää

Tämä raportti tehtiin 43 minuuttia sitten, kello 19.30 UTC
Tuuli 17 kn pohjoisesta
Lämpötila 23°C
Kosteus 89%
Ilmanpaine 1011 hPa
Näkyvyys 10 km tai enemmän
Muutamia pilviä 800 ft:n korkeudessa

METAR: GOOY 251930Z 36017KT 9999 FEW008 23/21 Q1011 NOSIG

Aika: 20:13 (20:13 UTC)

Sääennuste

Tämä raportti tehtiin 2 tuntia ja 43 minuuttia sitten, kello 17.30 UTC
Ennuste voimassa 25. päivästä klo 18 UTC - 26. päivään klo 24 UTC
Tuuli 15 kn pohjoisen/luoteesta
Näkyvyys 10 km tai enemmän
Hajanaisia pilviä 1000 ft:n korkeudessa

TAF: GOOY 251730Z 2518/2624 34015KT 9999 SCT010

Säähavainnot ja -ennusteet yli 4000 lentoasemalta (METAR- ja TAF-raportit).

Käytössä olevat sääasemat on merkitty karttaan keltaisilla ja punaisilla pisteillä.

Aseta hiiri pisteen päälle nähdäksesi sääaseman nimen.

Klikkaa sitten nähdäksesi säähavainnot ja -ennusteet.

Kartan vaihtaminen: klikkaa mustalla rastilla varustettuja vihreitä pisteitä, niin voit zoomata sisään; viivalla varustettua vihreää pistettä, niin voit zoomata ulos tai vihreitä nuolia, niin pääset viereisille kartoille.


METAR-TAF: